sensor_id;sensor_type;location;lat;lon;timestamp;temperature;humidity
78028;DHT22;67235;45.638;11.714;2023-08-30T00:00:55;19.20;80.80
78028;DHT22;67235;45.638;11.714;2023-08-30T00:03:21;19.20;80.10
78028;DHT22;67235;45.638;11.714;2023-08-30T00:05:47;19.20;80.00
78028;DHT22;67235;45.638;11.714;2023-08-30T00:08:12;19.20;80.20
78028;DHT22;67235;45.638;11.714;2023-08-30T00:10:44;19.20;79.70
78028;DHT22;67235;45.638;11.714;2023-08-30T00:13:10;19.20;80.00
78028;DHT22;67235;45.638;11.714;2023-08-30T00:15:35;19.10;80.10
78028;DHT22;67235;45.638;11.714;2023-08-30T00:18:01;19.20;80.00
78028;DHT22;67235;45.638;11.714;2023-08-30T00:20:27;19.20;80.30
78028;DHT22;67235;45.638;11.714;2023-08-30T00:22:53;19.20;80.50
78028;DHT22;67235;45.638;11.714;2023-08-30T00:25:19;19.20;80.00
78028;DHT22;67235;45.638;11.714;2023-08-30T00:27:44;19.20;80.10
78028;DHT22;67235;45.638;11.714;2023-08-30T00:30:11;19.10;80.00
78028;DHT22;67235;45.638;11.714;2023-08-30T00:32:37;19.20;79.90
78028;DHT22;67235;45.638;11.714;2023-08-30T00:35:03;19.20;80.20
78028;DHT22;67235;45.638;11.714;2023-08-30T00:37:29;19.20;80.00
78028;DHT22;67235;45.638;11.714;2023-08-30T00:39:55;19.20;80.40
78028;DHT22;67235;45.638;11.714;2023-08-30T00:42:20;19.20;80.30
78028;DHT22;67235;45.638;11.714;2023-08-30T00:44:46;19.20;80.50
78028;DHT22;67235;45.638;11.714;2023-08-30T00:47:14;19.30;80.80
78028;DHT22;67235;45.638;11.714;2023-08-30T00:49:40;19.30;80.80
78028;DHT22;67235;45.638;11.714;2023-08-30T00:52:08;19.30;80.80
78028;DHT22;67235;45.638;11.714;2023-08-30T00:54:35;19.20;80.90
78028;DHT22;67235;45.638;11.714;2023-08-30T00:57:01;19.30;81.10
78028;DHT22;67235;45.638;11.714;2023-08-30T00:59:29;19.30;81.00
78028;DHT22;67235;45.638;11.714;2023-08-30T01:01:58;19.20;81.00
78028;DHT22;67235;45.638;11.714;2023-08-30T01:04:24;19.30;81.00
78028;DHT22;67235;45.638;11.714;2023-08-30T01:06:51;19.30;81.10
78028;DHT22;67235;45.638;11.714;2023-08-30T01:09:18;19.30;81.10
78028;DHT22;67235;45.638;11.714;2023-08-30T01:11:50;19.30;81.20
78028;DHT22;67235;45.638;11.714;2023-08-30T01:14:22;19.20;81.20
78028;DHT22;67235;45.638;11.714;2023-08-30T01:16:51;19.30;80.90
78028;DHT22;67235;45.638;11.714;2023-08-30T01:22:37;19.30;80.90
78028;DHT22;67235;45.638;11.714;2023-08-30T01:28:01;19.40;80.60
78028;DHT22;67235;45.638;11.714;2023-08-30T01:30:29;19.30;80.00
78028;DHT22;67235;45.638;11.714;2023-08-30T01:32:56;19.40;80.70
78028;DHT22;67235;45.638;11.714;2023-08-30T01:35:24;19.30;80.80
78028;DHT22;67235;45.638;11.714;2023-08-30T01:37:51;19.30;80.60
78028;DHT22;67235;45.638;11.714;2023-08-30T01:40:19;19.30;81.10
78028;DHT22;67235;45.638;11.714;2023-08-30T01:42:46;19.30;81.00
78028;DHT22;67235;45.638;11.714;2023-08-30T01:45:14;19.40;81.00
78028;DHT22;67235;45.638;11.714;2023-08-30T01:47:44;19.30;80.80
78028;DHT22;67235;45.638;11.714;2023-08-30T01:50:12;19.30;80.40
78028;DHT22;67235;45.638;11.714;2023-08-30T01:52:38;19.30;81.00
78028;DHT22;67235;45.638;11.714;2023-08-30T01:55:05;19.30;80.90
78028;DHT22;67235;45.638;11.714;2023-08-30T01:57:31;19.20;81.20
78028;DHT22;67235;45.638;11.714;2023-08-30T01:59:57;19.30;81.00
78028;DHT22;67235;45.638;11.714;2023-08-30T02:02:23;19.30;80.70
78028;DHT22;67235;45.638;11.714;2023-08-30T02:04:49;19.20;80.70
78028;DHT22;67235;45.638;11.714;2023-08-30T02:07:20;19.20;80.70
78028;DHT22;67235;45.638;11.714;2023-08-30T02:10:08;19.20;80.70
78028;DHT22;67235;45.638;11.714;2023-08-30T02:12:46;19.20;80.80
78028;DHT22;67235;45.638;11.714;2023-08-30T02:15:13;19.20;81.10
78028;DHT22;67235;45.638;11.714;2023-08-30T02:17:40;19.30;80.90
78028;DHT22;67235;45.638;11.714;2023-08-30T02:20:07;19.30;81.10
78028;DHT22;67235;45.638;11.714;2023-08-30T02:22:33;19.30;81.00
78028;DHT22;67235;45.638;11.714;2023-08-30T02:24:59;19.20;81.30
78028;DHT22;67235;45.638;11.714;2023-08-30T02:27:33;19.30;81.20
78028;DHT22;67235;45.638;11.714;2023-08-30T02:30:00;19.30;81.20
78028;DHT22;67235;45.638;11.714;2023-08-30T02:32:26;19.20;81.30
78028;DHT22;67235;45.638;11.714;2023-08-30T02:34:52;19.30;81.40
78028;DHT22;67235;45.638;11.714;2023-08-30T02:37:19;19.20;81.40
78028;DHT22;67235;45.638;11.714;2023-08-30T02:39:45;19.20;81.40
78028;DHT22;67235;45.638;11.714;2023-08-30T02:42:11;19.20;81.40
78028;DHT22;67235;45.638;11.714;2023-08-30T02:44:37;19.30;81.40
78028;DHT22;67235;45.638;11.714;2023-08-30T02:47:03;19.20;81.20
78028;DHT22;67235;45.638;11.714;2023-08-30T02:49:29;19.20;81.30
78028;DHT22;67235;45.638;11.714;2023-08-30T02:51:55;19.20;81.20
78028;DHT22;67235;45.638;11.714;2023-08-30T02:54:21;19.20;81.40
78028;DHT22;67235;45.638;11.714;2023-08-30T02:56:48;19.10;81.20
78028;DHT22;67235;45.638;11.714;2023-08-30T02:59:14;19.10;81.30
78028;DHT22;67235;45.638;11.714;2023-08-30T03:01:40;19.20;81.50
78028;DHT22;67235;45.638;11.714;2023-08-30T03:04:06;19.10;81.30
78028;DHT22;67235;45.638;11.714;2023-08-30T03:06:33;19.00;81.40
78028;DHT22;67235;45.638;11.714;2023-08-30T03:08:59;19.10;81.30
78028;DHT22;67235;45.638;11.714;2023-08-30T03:11:38;19.10;81.40
78028;DHT22;67235;45.638;11.714;2023-08-30T03:14:25;19.00;81.40
78028;DHT22;67235;45.638;11.714;2023-08-30T03:16:51;19.00;81.20
78028;DHT22;67235;45.638;11.714;2023-08-30T03:19:17;19.10;81.40
78028;DHT22;67235;45.638;11.714;2023-08-30T03:21:43;19.00;81.50
78028;DHT22;67235;45.638;11.714;2023-08-30T03:24:09;19.00;81.50
78028;DHT22;67235;45.638;11.714;2023-08-30T03:26:35;19.10;81.60
78028;DHT22;67235;45.638;11.714;2023-08-30T03:29:01;19.10;81.50
78028;DHT22;67235;45.638;11.714;2023-08-30T03:31:26;19.10;81.60
78028;DHT22;67235;45.638;11.714;2023-08-30T03:33:52;19.10;81.60
78028;DHT22;67235;45.638;11.714;2023-08-30T03:36:18;19.10;81.50
78028;DHT22;67235;45.638;11.714;2023-08-30T03:38:45;19.20;81.40
78028;DHT22;67235;45.638;11.714;2023-08-30T03:41:11;19.10;81.50
78028;DHT22;67235;45.638;11.714;2023-08-30T03:43:38;19.20;81.60
78028;DHT22;67235;45.638;11.714;2023-08-30T03:46:04;19.20;81.60
78028;DHT22;67235;45.638;11.714;2023-08-30T03:48:30;19.20;81.40
78028;DHT22;67235;45.638;11.714;2023-08-30T03:50:57;19.20;81.50
78028;DHT22;67235;45.638;11.714;2023-08-30T03:53:23;19.20;81.40
78028;DHT22;67235;45.638;11.714;2023-08-30T03:55:49;19.20;81.50
78028;DHT22;67235;45.638;11.714;2023-08-30T03:58:16;19.10;81.40
78028;DHT22;67235;45.638;11.714;2023-08-30T04:00:41;19.30;81.20
78028;DHT22;67235;45.638;11.714;2023-08-30T04:03:09;19.20;81.30
78028;DHT22;67235;45.638;11.714;2023-08-30T04:05:36;19.20;81.10
78028;DHT22;67235;45.638;11.714;2023-08-30T04:08:05;19.10;81.30
78028;DHT22;67235;45.638;11.714;2023-08-30T04:10:38;19.10;81.30
78028;DHT22;67235;45.638;11.714;2023-08-30T04:13:05;19.20;81.50
78028;DHT22;67235;45.638;11.714;2023-08-30T04:15:35;19.10;81.50
78028;DHT22;67235;45.638;11.714;2023-08-30T04:18:06;19.20;81.60
78028;DHT22;67235;45.638;11.714;2023-08-30T04:20:33;19.20;81.30
78028;DHT22;67235;45.638;11.714;2023-08-30T04:23:02;19.10;81.40
78028;DHT22;67235;45.638;11.714;2023-08-30T04:25:29;19.20;81.60
78028;DHT22;67235;45.638;11.714;2023-08-30T04:27:55;19.20;81.30
78028;DHT22;67235;45.638;11.714;2023-08-30T04:30:21;19.20;81.50
78028;DHT22;67235;45.638;11.714;2023-08-30T04:32:47;19.20;81.40
78028;DHT22;67235;45.638;11.714;2023-08-30T04:35:13;19.10;81.60
78028;DHT22;67235;45.638;11.714;2023-08-30T04:37:39;19.20;81.50
78028;DHT22;67235;45.638;11.714;2023-08-30T04:40:06;19.10;81.50
78028;DHT22;67235;45.638;11.714;2023-08-30T04:42:34;19.10;81.50
78028;DHT22;67235;45.638;11.714;2023-08-30T04:45:01;19.20;81.60
78028;DHT22;67235;45.638;11.714;2023-08-30T04:47:29;19.20;81.40
78028;DHT22;67235;45.638;11.714;2023-08-30T04:49:55;19.20;81.50
78028;DHT22;67235;45.638;11.714;2023-08-30T04:52:21;19.10;81.50
78028;DHT22;67235;45.638;11.714;2023-08-30T04:54:47;19.20;81.40
78028;DHT22;67235;45.638;11.714;2023-08-30T04:57:15;19.20;81.40
78028;DHT22;67235;45.638;11.714;2023-08-30T04:59:45;19.20;81.50
78028;DHT22;67235;45.638;11.714;2023-08-30T05:02:11;19.20;81.40
78028;DHT22;67235;45.638;11.714;2023-08-30T05:05:02;19.20;81.40
78028;DHT22;67235;45.638;11.714;2023-08-30T05:07:28;19.10;81.50
78028;DHT22;67235;45.638;11.714;2023-08-30T05:09:54;19.20;81.70
78028;DHT22;67235;45.638;11.714;2023-08-30T05:12:20;19.20;81.70
78028;DHT22;67235;45.638;11.714;2023-08-30T05:14:47;19.20;81.50
78028;DHT22;67235;45.638;11.714;2023-08-30T05:17:13;19.20;81.60
78028;DHT22;67235;45.638;11.714;2023-08-30T05:19:39;19.20;81.60
78028;DHT22;67235;45.638;11.714;2023-08-30T05:22:05;19.30;81.80
78028;DHT22;67235;45.638;11.714;2023-08-30T05:24:30;19.30;81.90
78028;DHT22;67235;45.638;11.714;2023-08-30T05:26:56;19.30;81.90
78028;DHT22;67235;45.638;11.714;2023-08-30T05:29:22;19.30;81.70
78028;DHT22;67235;45.638;11.714;2023-08-30T05:31:48;19.30;81.70
78028;DHT22;67235;45.638;11.714;2023-08-30T05:34:14;19.40;81.80
78028;DHT22;67235;45.638;11.714;2023-08-30T05:36:40;19.40;81.60
78028;DHT22;67235;45.638;11.714;2023-08-30T05:39:06;19.40;81.70
78028;DHT22;67235;45.638;11.714;2023-08-30T05:41:32;19.40;81.60
78028;DHT22;67235;45.638;11.714;2023-08-30T05:43:58;19.50;81.70
78028;DHT22;67235;45.638;11.714;2023-08-30T05:46:24;19.50;81.60
78028;DHT22;67235;45.638;11.714;2023-08-30T05:48:50;19.50;81.70
78028;DHT22;67235;45.638;11.714;2023-08-30T05:51:15;19.60;81.70
78028;DHT22;67235;45.638;11.714;2023-08-30T05:53:41;19.70;81.70
78028;DHT22;67235;45.638;11.714;2023-08-30T05:56:07;19.60;81.60
78028;DHT22;67235;45.638;11.714;2023-08-30T05:58:33;19.60;81.60
78028;DHT22;67235;45.638;11.714;2023-08-30T06:00:59;19.60;81.50
78028;DHT22;67235;45.638;11.714;2023-08-30T06:03:28;19.60;81.50
78028;DHT22;67235;45.638;11.714;2023-08-30T06:05:54;19.60;81.60
78028;DHT22;67235;45.638;11.714;2023-08-30T06:08:20;19.70;81.60
78028;DHT22;67235;45.638;11.714;2023-08-30T06:10:46;19.70;81.50
78028;DHT22;67235;45.638;11.714;2023-08-30T06:13:12;19.70;81.70
78028;DHT22;67235;45.638;11.714;2023-08-30T06:15:38;19.80;81.50
78028;DHT22;67235;45.638;11.714;2023-08-30T06:18:04;19.90;81.70
78028;DHT22;67235;45.638;11.714;2023-08-30T06:20:30;19.90;81.10
78028;DHT22;67235;45.638;11.714;2023-08-30T06:22:58;19.90;81.00
78028;DHT22;67235;45.638;11.714;2023-08-30T06:25:24;19.80;81.30
78028;DHT22;67235;45.638;11.714;2023-08-30T06:27:58;19.90;81.20
78028;DHT22;67235;45.638;11.714;2023-08-30T06:30:25;20.00;81.30
78028;DHT22;67235;45.638;11.714;2023-08-30T06:32:51;19.90;81.20
78028;DHT22;67235;45.638;11.714;2023-08-30T06:35:17;20.00;81.30
78028;DHT22;67235;45.638;11.714;2023-08-30T06:37:43;20.10;81.30
78028;DHT22;67235;45.638;11.714;2023-08-30T06:40:09;20.00;81.20
78028;DHT22;67235;45.638;11.714;2023-08-30T06:42:35;20.00;80.70
78028;DHT22;67235;45.638;11.714;2023-08-30T06:45:02;20.10;80.80
78028;DHT22;67235;45.638;11.714;2023-08-30T06:47:28;20.10;80.70
78028;DHT22;67235;45.638;11.714;2023-08-30T06:49:54;20.30;80.00
78028;DHT22;67235;45.638;11.714;2023-08-30T06:52:20;20.30;80.00
78028;DHT22;67235;45.638;11.714;2023-08-30T06:54:46;20.30;80.20
78028;DHT22;67235;45.638;11.714;2023-08-30T06:57:12;20.30;80.20
78028;DHT22;67235;45.638;11.714;2023-08-30T06:59:37;20.40;80.20
78028;DHT22;67235;45.638;11.714;2023-08-30T07:02:03;20.30;79.70
78028;DHT22;67235;45.638;11.714;2023-08-30T07:04:29;20.40;79.60
78028;DHT22;67235;45.638;11.714;2023-08-30T07:06:55;20.50;79.30
78028;DHT22;67235;45.638;11.714;2023-08-30T07:09:21;20.50;79.70
78028;DHT22;67235;45.638;11.714;2023-08-30T07:11:55;20.50;79.90
78028;DHT22;67235;45.638;11.714;2023-08-30T07:14:21;20.60;80.30
78028;DHT22;67235;45.638;11.714;2023-08-30T07:16:47;20.70;79.20
78028;DHT22;67235;45.638;11.714;2023-08-30T07:19:15;20.80;79.60
78028;DHT22;67235;45.638;11.714;2023-08-30T07:21:42;20.80;79.70
78028;DHT22;67235;45.638;11.714;2023-08-30T07:24:08;21.00;78.20
78028;DHT22;67235;45.638;11.714;2023-08-30T07:26:35;21.00;77.40
78028;DHT22;67235;45.638;11.714;2023-08-30T07:29:01;21.10;76.90
78028;DHT22;67235;45.638;11.714;2023-08-30T07:31:27;21.30;76.90
78028;DHT22;67235;45.638;11.714;2023-08-30T07:33:52;21.30;77.20
78028;DHT22;67235;45.638;11.714;2023-08-30T07:36:18;21.30;77.30
78028;DHT22;67235;45.638;11.714;2023-08-30T07:38:44;21.30;77.60
78028;DHT22;67235;45.638;11.714;2023-08-30T07:41:10;21.50;77.60
78028;DHT22;67235;45.638;11.714;2023-08-30T07:43:36;21.50;77.10
78028;DHT22;67235;45.638;11.714;2023-08-30T07:46:02;21.60;76.40
78028;DHT22;67235;45.638;11.714;2023-08-30T07:48:28;21.60;77.20
78028;DHT22;67235;45.638;11.714;2023-08-30T07:50:54;21.70;77.40
78028;DHT22;67235;45.638;11.714;2023-08-30T07:53:19;21.80;76.70
78028;DHT22;67235;45.638;11.714;2023-08-30T07:55:49;21.80;75.90
78028;DHT22;67235;45.638;11.714;2023-08-30T07:58:16;21.90;76.00
78028;DHT22;67235;45.638;11.714;2023-08-30T08:00:42;21.90;76.60
78028;DHT22;67235;45.638;11.714;2023-08-30T08:03:08;21.90;76.40
78028;DHT22;67235;45.638;11.714;2023-08-30T08:05:36;22.00;76.30
78028;DHT22;67235;45.638;11.714;2023-08-30T08:08:03;21.90;76.40
78028;DHT22;67235;45.638;11.714;2023-08-30T08:10:33;22.10;75.70
78028;DHT22;67235;45.638;11.714;2023-08-30T08:13:02;22.10;74.80
78028;DHT22;67235;45.638;11.714;2023-08-30T08:15:29;22.20;75.20
78028;DHT22;67235;45.638;11.714;2023-08-30T08:17:57;22.10;74.90
78028;DHT22;67235;45.638;11.714;2023-08-30T08:20:22;22.10;75.60
78028;DHT22;67235;45.638;11.714;2023-08-30T08:22:48;22.10;75.10
78028;DHT22;67235;45.638;11.714;2023-08-30T08:25:14;22.10;74.90
78028;DHT22;67235;45.638;11.714;2023-08-30T08:27:42;22.00;75.40
78028;DHT22;67235;45.638;11.714;2023-08-30T08:30:08;22.10;75.50
78028;DHT22;67235;45.638;11.714;2023-08-30T08:32:35;22.00;74.60
78028;DHT22;67235;45.638;11.714;2023-08-30T08:35:01;22.10;74.10
78028;DHT22;67235;45.638;11.714;2023-08-30T08:37:28;21.80;74.40
78028;DHT22;67235;45.638;11.714;2023-08-30T08:39:54;21.90;74.00
78028;DHT22;67235;45.638;11.714;2023-08-30T08:42:20;21.90;74.70
78028;DHT22;67235;45.638;11.714;2023-08-30T08:44:53;21.90;74.80
78028;DHT22;67235;45.638;11.714;2023-08-30T08:47:20;21.90;75.10
78028;DHT22;67235;45.638;11.714;2023-08-30T08:49:50;21.90;75.00
78028;DHT22;67235;45.638;11.714;2023-08-30T08:52:17;22.00;75.30
78028;DHT22;67235;45.638;11.714;2023-08-30T08:54:43;22.10;73.50
78028;DHT22;67235;45.638;11.714;2023-08-30T08:57:10;22.20;74.10
78028;DHT22;67235;45.638;11.714;2023-08-30T08:59:36;22.20;74.20
78028;DHT22;67235;45.638;11.714;2023-08-30T09:02:02;22.20;74.80
78028;DHT22;67235;45.638;11.714;2023-08-30T09:04:31;22.10;74.10
78028;DHT22;67235;45.638;11.714;2023-08-30T09:06:58;22.20;73.10
78028;DHT22;67235;45.638;11.714;2023-08-30T09:09:26;22.20;71.60
78028;DHT22;67235;45.638;11.714;2023-08-30T09:11:51;22.20;72.70
78028;DHT22;67235;45.638;11.714;2023-08-30T09:14:18;22.20;71.90
78028;DHT22;67235;45.638;11.714;2023-08-30T09:16:57;22.10;71.40
78028;DHT22;67235;45.638;11.714;2023-08-30T09:19:23;22.30;72.00
78028;DHT22;67235;45.638;11.714;2023-08-30T09:21:58;22.30;73.50
78028;DHT22;67235;45.638;11.714;2023-08-30T09:24:24;22.30;70.90
78028;DHT22;67235;45.638;11.714;2023-08-30T09:26:54;22.20;71.60
78028;DHT22;67235;45.638;11.714;2023-08-30T09:29:21;22.10;71.10
78028;DHT22;67235;45.638;11.714;2023-08-30T09:31:51;22.20;70.50
78028;DHT22;67235;45.638;11.714;2023-08-30T09:34:22;22.20;71.80
78028;DHT22;67235;45.638;11.714;2023-08-30T09:36:49;22.20;72.00
78028;DHT22;67235;45.638;11.714;2023-08-30T09:39:16;22.30;73.40
78028;DHT22;67235;45.638;11.714;2023-08-30T09:41:46;22.40;72.50
78028;DHT22;67235;45.638;11.714;2023-08-30T09:44:17;22.50;71.00
78028;DHT22;67235;45.638;11.714;2023-08-30T09:49:13;22.70;72.30
78028;DHT22;67235;45.638;11.714;2023-08-30T09:51:40;22.80;72.50
78028;DHT22;67235;45.638;11.714;2023-08-30T09:54:13;22.80;72.90
78028;DHT22;67235;45.638;11.714;2023-08-30T09:56:41;23.00;73.30
78028;DHT22;67235;45.638;11.714;2023-08-30T09:59:10;23.10;73.50
78028;DHT22;67235;45.638;11.714;2023-08-30T10:01:40;23.20;72.90
78028;DHT22;67235;45.638;11.714;2023-08-30T10:04:07;23.30;73.70
78028;DHT22;67235;45.638;11.714;2023-08-30T10:06:40;23.40;72.80
78028;DHT22;67235;45.638;11.714;2023-08-30T10:09:07;23.60;73.20
78028;DHT22;67235;45.638;11.714;2023-08-30T10:11:38;23.70;73.00
78028;DHT22;67235;45.638;11.714;2023-08-30T10:14:07;23.70;71.90
78028;DHT22;67235;45.638;11.714;2023-08-30T10:16:45;23.60;71.50
78028;DHT22;67235;45.638;11.714;2023-08-30T10:19:15;23.80;72.40
78028;DHT22;67235;45.638;11.714;2023-08-30T10:21:43;24.00;72.80
78028;DHT22;67235;45.638;11.714;2023-08-30T10:24:14;24.00;71.20
78028;DHT22;67235;45.638;11.714;2023-08-30T10:26:43;24.10;71.50
78028;DHT22;67235;45.638;11.714;2023-08-30T10:29:11;24.30;72.30
78028;DHT22;67235;45.638;11.714;2023-08-30T10:31:38;24.30;70.70
78028;DHT22;67235;45.638;11.714;2023-08-30T10:34:16;24.50;71.00
78028;DHT22;67235;45.638;11.714;2023-08-30T10:36:43;24.70;71.40
78028;DHT22;67235;45.638;11.714;2023-08-30T10:39:14;24.90;71.00
78028;DHT22;67235;45.638;11.714;2023-08-30T10:41:56;25.10;70.50
78028;DHT22;67235;45.638;11.714;2023-08-30T10:44:23;25.10;69.30
78028;DHT22;67235;45.638;11.714;2023-08-30T10:46:55;25.20;68.00
78028;DHT22;67235;45.638;11.714;2023-08-30T10:49:21;25.20;69.00
78028;DHT22;67235;45.638;11.714;2023-08-30T10:51:57;25.20;67.90
78028;DHT22;67235;45.638;11.714;2023-08-30T10:54:24;25.10;67.40
78028;DHT22;67235;45.638;11.714;2023-08-30T10:56:57;25.20;67.90
78028;DHT22;67235;45.638;11.714;2023-08-30T10:59:26;25.30;68.70
78028;DHT22;67235;45.638;11.714;2023-08-30T11:01:52;25.50;68.70
78028;DHT22;67235;45.638;11.714;2023-08-30T11:04:19;25.50;67.00
78028;DHT22;67235;45.638;11.714;2023-08-30T11:06:48;25.50;66.80
78028;DHT22;67235;45.638;11.714;2023-08-30T11:09:19;25.70;67.70
78028;DHT22;67235;45.638;11.714;2023-08-30T11:11:47;25.60;66.50
78028;DHT22;67235;45.638;11.714;2023-08-30T11:14:13;25.80;68.30
78028;DHT22;67235;45.638;11.714;2023-08-30T11:16:40;25.90;66.20
78028;DHT22;67235;45.638;11.714;2023-08-30T11:19:07;26.00;67.40
78028;DHT22;67235;45.638;11.714;2023-08-30T11:21:35;26.10;67.10
78028;DHT22;67235;45.638;11.714;2023-08-30T11:24:03;26.40;62.50
78028;DHT22;67235;45.638;11.714;2023-08-30T11:26:29;26.30;65.90
78028;DHT22;67235;45.638;11.714;2023-08-30T11:28:55;26.40;64.40
78028;DHT22;67235;45.638;11.714;2023-08-30T11:31:22;26.30;66.10
78028;DHT22;67235;45.638;11.714;2023-08-30T11:36:20;26.50;62.80
78028;DHT22;67235;45.638;11.714;2023-08-30T11:38:47;26.60;61.00
78028;DHT22;67235;45.638;11.714;2023-08-30T11:41:13;26.70;58.90
78028;DHT22;67235;45.638;11.714;2023-08-30T11:43:39;26.70;61.00
78028;DHT22;67235;45.638;11.714;2023-08-30T11:46:05;27.00;61.30
78028;DHT22;67235;45.638;11.714;2023-08-30T11:48:32;27.30;61.40
78028;DHT22;67235;45.638;11.714;2023-08-30T11:50:58;27.60;58.00
78028;DHT22;67235;45.638;11.714;2023-08-30T11:53:25;27.80;55.20
78028;DHT22;67235;45.638;11.714;2023-08-30T11:55:52;28.00;55.60
78028;DHT22;67235;45.638;11.714;2023-08-30T11:58:18;28.20;53.60
78028;DHT22;67235;45.638;11.714;2023-08-30T12:00:45;28.40;52.30
78028;DHT22;67235;45.638;11.714;2023-08-30T12:03:14;28.60;52.50
78028;DHT22;67235;45.638;11.714;2023-08-30T12:05:47;29.20;53.00
78028;DHT22;67235;45.638;11.714;2023-08-30T12:08:30;29.90;52.50
78028;DHT22;67235;45.638;11.714;2023-08-30T12:10:57;30.70;49.30
78028;DHT22;67235;45.638;11.714;2023-08-30T12:13:24;30.80;48.00
78028;DHT22;67235;45.638;11.714;2023-08-30T12:15:56;30.70;44.90
78028;DHT22;67235;45.638;11.714;2023-08-30T12:18:32;30.10;43.20
78028;DHT22;67235;45.638;11.714;2023-08-30T12:21:03;29.50;43.30
78028;DHT22;67235;45.638;11.714;2023-08-30T12:23:31;29.30;49.30
78028;DHT22;67235;45.638;11.714;2023-08-30T12:26:05;29.10;51.10
78028;DHT22;67235;45.638;11.714;2023-08-30T12:28:37;28.80;52.20
78028;DHT22;67235;45.638;11.714;2023-08-30T12:31:04;28.70;49.00
78028;DHT22;67235;45.638;11.714;2023-08-30T12:33:30;28.10;48.00
78028;DHT22;67235;45.638;11.714;2023-08-30T12:35:57;27.80;47.90
78028;DHT22;67235;45.638;11.714;2023-08-30T12:38:24;28.00;48.50
78028;DHT22;67235;45.638;11.714;2023-08-30T12:40:54;27.80;51.70
78028;DHT22;67235;45.638;11.714;2023-08-30T12:43:20;27.70;48.10
78028;DHT22;67235;45.638;11.714;2023-08-30T12:45:47;27.40;48.60
78028;DHT22;67235;45.638;11.714;2023-08-30T12:48:14;27.00;50.60
78028;DHT22;67235;45.638;11.714;2023-08-30T12:50:46;26.80;47.90
78028;DHT22;67235;45.638;11.714;2023-08-30T12:53:13;26.80;50.70
78028;DHT22;67235;45.638;11.714;2023-08-30T12:55:39;26.70;49.30
78028;DHT22;67235;45.638;11.714;2023-08-30T12:58:06;26.70;52.50
78028;DHT22;67235;45.638;11.714;2023-08-30T13:00:33;26.60;53.90
78028;DHT22;67235;45.638;11.714;2023-08-30T13:02:59;26.90;51.20
78028;DHT22;67235;45.638;11.714;2023-08-30T13:05:25;27.10;50.80
78028;DHT22;67235;45.638;11.714;2023-08-30T13:07:51;27.40;52.70
78028;DHT22;67235;45.638;11.714;2023-08-30T13:10:17;27.90;50.30
78028;DHT22;67235;45.638;11.714;2023-08-30T13:12:43;27.90;47.10
78028;DHT22;67235;45.638;11.714;2023-08-30T13:15:10;27.60;48.30
78028;DHT22;67235;45.638;11.714;2023-08-30T13:17:36;27.40;47.90
78028;DHT22;67235;45.638;11.714;2023-08-30T13:20:02;27.50;47.60
78028;DHT22;67235;45.638;11.714;2023-08-30T13:22:28;26.80;50.30
78028;DHT22;67235;45.638;11.714;2023-08-30T13:24:54;26.30;56.30
78028;DHT22;67235;45.638;11.714;2023-08-30T13:27:20;26.20;54.20
78028;DHT22;67235;45.638;11.714;2023-08-30T13:29:46;25.80;56.10
78028;DHT22;67235;45.638;11.714;2023-08-30T13:32:12;25.60;57.00
78028;DHT22;67235;45.638;11.714;2023-08-30T13:34:38;25.60;57.00
78028;DHT22;67235;45.638;11.714;2023-08-30T13:37:04;25.70;56.80
78028;DHT22;67235;45.638;11.714;2023-08-30T13:39:30;25.70;57.90
78028;DHT22;67235;45.638;11.714;2023-08-30T13:41:56;25.60;57.60
78028;DHT22;67235;45.638;11.714;2023-08-30T13:44:22;25.90;61.20
78028;DHT22;67235;45.638;11.714;2023-08-30T13:46:49;26.30;59.00
78028;DHT22;67235;45.638;11.714;2023-08-30T13:49:16;26.60;53.10
78028;DHT22;67235;45.638;11.714;2023-08-30T13:51:44;26.80;54.90
78028;DHT22;67235;45.638;11.714;2023-08-30T13:54:10;26.90;50.90
78028;DHT22;67235;45.638;11.714;2023-08-30T13:56:36;26.90;54.80
78028;DHT22;67235;45.638;11.714;2023-08-30T13:59:05;27.00;51.90
78028;DHT22;67235;45.638;11.714;2023-08-30T14:01:32;26.90;51.10
78028;DHT22;67235;45.638;11.714;2023-08-30T14:03:58;26.90;53.70
78028;DHT22;67235;45.638;11.714;2023-08-30T14:06:23;26.60;52.50
78028;DHT22;67235;45.638;11.714;2023-08-30T14:08:49;26.30;56.70
78028;DHT22;67235;45.638;11.714;2023-08-30T14:11:15;26.30;55.80
78028;DHT22;67235;45.638;11.714;2023-08-30T14:13:41;26.10;53.50
78028;DHT22;67235;45.638;11.714;2023-08-30T14:16:07;25.90;54.10
78028;DHT22;67235;45.638;11.714;2023-08-30T14:18:35;25.60;56.50
78028;DHT22;67235;45.638;11.714;2023-08-30T14:21:02;25.50;58.20
78028;DHT22;67235;45.638;11.714;2023-08-30T14:23:31;25.20;59.50
78028;DHT22;67235;45.638;11.714;2023-08-30T14:26:01;25.10;59.40
78028;DHT22;67235;45.638;11.714;2023-08-30T14:28:29;25.00;60.20
78028;DHT22;67235;45.638;11.714;2023-08-30T14:30:55;24.80;58.60
78028;DHT22;67235;45.638;11.714;2023-08-30T14:33:21;24.80;58.70
78028;DHT22;67235;45.638;11.714;2023-08-30T14:35:47;24.70;56.90
78028;DHT22;67235;45.638;11.714;2023-08-30T14:38:12;24.80;59.40
78028;DHT22;67235;45.638;11.714;2023-08-30T14:40:38;25.00;63.20
78028;DHT22;67235;45.638;11.714;2023-08-30T14:43:04;24.90;56.20
78028;DHT22;67235;45.638;11.714;2023-08-30T14:45:31;25.10;58.10
78028;DHT22;67235;45.638;11.714;2023-08-30T14:47:57;25.00;57.20
78028;DHT22;67235;45.638;11.714;2023-08-30T14:50:23;25.10;60.20
78028;DHT22;67235;45.638;11.714;2023-08-30T14:52:49;25.20;60.30
78028;DHT22;67235;45.638;11.714;2023-08-30T14:55:16;25.20;57.20
78028;DHT22;67235;45.638;11.714;2023-08-30T14:57:42;25.20;57.10
78028;DHT22;67235;45.638;11.714;2023-08-30T15:00:08;25.30;56.40
78028;DHT22;67235;45.638;11.714;2023-08-30T15:02:34;25.30;56.00
78028;DHT22;67235;45.638;11.714;2023-08-30T15:05:00;25.10;57.50
78028;DHT22;67235;45.638;11.714;2023-08-30T15:07:26;24.90;55.80
78028;DHT22;67235;45.638;11.714;2023-08-30T15:09:52;24.90;55.10
78028;DHT22;67235;45.638;11.714;2023-08-30T15:12:17;24.80;55.50
78028;DHT22;67235;45.638;11.714;2023-08-30T15:14:43;24.70;55.50
78028;DHT22;67235;45.638;11.714;2023-08-30T15:17:09;24.70;57.70
78028;DHT22;67235;45.638;11.714;2023-08-30T15:19:36;24.80;57.60
78028;DHT22;67235;45.638;11.714;2023-08-30T15:22:02;24.90;57.80
78028;DHT22;67235;45.638;11.714;2023-08-30T15:24:28;24.90;57.00
78028;DHT22;67235;45.638;11.714;2023-08-30T15:26:54;25.10;57.00